• Join FlightAware (Why Join?)
  • Login
  • US Flag 
Rudolph Flight #1: Arrived! 
04:05AM EST


 

Airport Tracker/Info


-or-


 

Live Flight TrackerFlight Track Log ✈ FLG3824 ✈ 26-Apr-2014 ✈ KDTW - KRDU

Flight Track Log - Related Links

Times and Time Zones

All times are in EDT time to prevent confusion due to time zone crossing. See the FLG3824 flight status page for this flight to view local times or setup timezone preferences in your user account.

Time Position Orientation Groundspeed Altitude Reporting Facility
EDT Latitude Longitude Course Direction KTS MPH feet Rate Location/Type
12:33PM 42.2272 -83.3364 49° Northeast 151 174 1,300  Level Cleveland Center
12:33PM 42.2489 -83.3025 49° Northeast 192 221 2,900 2,040 Climbing Cleveland Center
12:34PM 42.2611 -83.2225 78° East 263 303 4,900 1,860 Climbing Cleveland Center
12:35PM 42.2589 -83.2069 101° East 247 284 5,200 2,400 Climbing Cleveland Center
12:35PM 42.2392 -83.1292 109° East 306 352 7,100 2,280 Climbing Cleveland Center
12:36PM 42.2350 -83.1086 105° East 289 333 7,600 2,640 Climbing Cleveland Center
12:36PM 42.2100 -83.0125 109° East 331 381 9,800 2,520 Climbing Cleveland Center
12:37PM 42.2081 -82.9931 98° East 316 364 10,200 1,560 Climbing Cleveland Center
12:38PM 42.1783 -82.8650 107° East 350 403 11,900 1,980 Climbing Cleveland Center
12:39PM 42.1369 -82.6889 108° East 403 464 14,300 2,220 Climbing Cleveland Center
12:40PM 42.1003 -82.5383 108° East 420 483 16,500 2,040 Climbing Cleveland Center
12:41PM 42.0711 -82.3789 104° East 433 498 18,500 1,860 Climbing Cleveland Center
12:42PM 42.0475 -82.2122 101° East 448 516 20,400 1,500 Climbing Cleveland Center
12:43PM 42.0031 -82.0511 110° East 482 555 21,600 1,320 Climbing Cleveland Center
12:44PM 41.8944 -81.9425 143° Southeast 481 554 23,200 1,680 Climbing Cleveland Center
12:45PM 41.7614 -81.8158 145° Southeast 492 566 25,100 1,440 Climbing Cleveland Center
12:46PM 41.6444 -81.7067 145° Southeast 502 578 26,200 1,080 Climbing Cleveland Center
12:47PM 41.5111 -81.6325 157° South 511 588 27,400 1,080 Climbing Cleveland Center
12:48PM 41.3883 -81.5633 157° South 514 592 28,500 780 Climbing Cleveland Center
12:49PM 41.2525 -81.4889 158° South 528 608 29,000 240 Climbing Cleveland Center
12:50PM 41.0900 -81.3997 158° South 538 619 29,000  Level Cleveland Center
12:51PM 40.9483 -81.3228 158° South 540 621 29,000  Level Cleveland Center
12:52PM 40.8100 -81.2456 157° South 538 619 29,000  Level Cleveland Center
12:53PM 40.6722 -81.1708 158° South 533 613 29,000  Level Cleveland Center
12:54PM 40.5378 -81.0975 157° South 533 613 29,000  Level Cleveland Center
12:55PM 40.3978 -81.0231 158° South 542 624 29,000  Level Cleveland Center
12:56PM 40.2581 -80.9481 158° South 546 628 29,000  Level Cleveland Center
12:57PM 40.1192 -80.8731 158° South 546 628 29,000  Level Cleveland Center
12:58PM 39.9547 -80.7792 156° South 543 625 29,000  Level Cleveland Center
12:59PM 39.8225 -80.6889 152° Southeast 543 625 29,000  Level Cleveland Center
01:00PM 39.6886 -80.6017 153° Southeast 543 625 29,000  Level Cleveland Center
01:01PM 39.5544 -80.5150 154° Southeast 542 624 29,000  Level Cleveland Center
01:02PM 39.4217 -80.4289 153° Southeast 538 619 29,000  Level Cleveland Center
01:03PM 39.2878 -80.3425 153° Southeast 539 620 29,000  Level Cleveland Center
01:04PM 39.1278 -80.2378 153° Southeast 538 619 29,000  Level Cleveland Center
01:05PM 38.9950 -80.1528 154° Southeast 537 618 29,000  Level Cleveland Center
01:06PM 38.8569 -80.1000 163° South 530 610 29,000  Level Cleveland Center
01:08PM 38.7169 -80.0964 179° South 509 586 29,000  Level Cleveland Center
01:08PM 38.6011 -80.0933 179° South 503 579 29,000  Level Washington Center
01:09PM 38.4656 -80.0906 179° South 498 573 29,000 -300 Level Washington Center
01:10PM 38.3044 -80.0886 179° South 498 573 28,500 -720 Descending Washington Center
01:12PM 38.1692 -80.0861 179° South 498 573 27,600 -720 Descending Washington Center
01:13PM 38.0378 -80.0831 179° South 491 565 27,000 -300 Descending Washington Center
01:14PM 37.8875 -80.0806 179° South 471 542 27,000  Level Washington Center
01:15PM 37.7611 -80.0783 179° South 470 541 27,000  Level Washington Center
01:16PM 37.6322 -80.0769 180° South 473 544 27,000 -240 Level Washington Center
01:17PM 37.4767 -80.0728 179° South 481 554 26,600 -720 Descending Washington Center
01:18PM 37.3497 -80.0522 173° South 483 556 25,600 -960 Descending Washington Center
01:19PM 37.2583 -79.9336 134° Southeast 493 567 24,700 -1,020 Descending Washington Center
01:20PM 37.1619 -79.7797 128° Southeast 489 563 23,500 -1,020 Descending Washington Center
01:21PM 37.0825 -79.6539 128° Southeast 482 555 22,600 -1,020 Descending Washington Center
01:22PM 36.9886 -79.5067 129° Southeast 472 543 21,400 -780 Descending Washington Center
01:23PM 36.9119 -79.3869 129° Southeast 457 526 21,000 -900 Descending Washington Center
01:24PM 36.8381 -79.2706 128° Southeast 442 509 19,600 -1,620 Descending Washington Center
01:25PM 36.7511 -79.1339 128° Southeast 434 499 17,700 -1,800 Descending Washington Center
01:26PM 36.6772 -79.0233 130° Southeast 429 494 16,000 -1,740 Descending Washington Center
01:27PM 36.5778 -78.9875 164° South 361 415 14,100 -1,740 Descending Washington Center
01:28PM 36.4842 -78.9617 167° South 343 395 12,600 -1,620 Descending Washington Center
01:29PM 36.3792 -78.9192 162° South 343 395 10,800 -1,620 Descending Washington Center
01:30PM 36.3106 -78.8558 143° Southeast 326 375 9,400 -1,500 Descending Washington Center
01:31PM 36.2406 -78.7922 144° Southeast 312 359 8,000 -1,440 Descending Washington Center
01:32PM 36.1842 -78.7408 144° Southeast 261 300 6,700 -1,320 Descending Washington Center
01:32PM 36.1708 -78.7289 144° Southeast 267 307 6,500 -840 Descending Washington Center
01:33PM 36.1256 -78.6894 145° Southeast 252 290 5,900 -780 Descending Washington Center
01:33PM 36.1147 -78.6797 144° Southeast 257 296 5,700 -1,500 Descending Washington Center
01:34PM 36.0622 -78.6683 170° South 230 265 4,500 -1,500 Descending Washington Center
01:34PM 36.0506 -78.6664 172° South 238 274 4,200 -1,200 Descending Washington Center
01:35PM 36.0056 -78.6714 185° South 192 221 3,300 -1,140 Descending Washington Center
01:35PM 35.9953 -78.6719 183° South 207 238 3,100 -1,140 Descending Washington Center
01:36PM 35.9617 -78.6942 208° Southwest 175 201 2,200 -1,080 Descending Washington Center
01:36PM 35.9481 -78.7111 225° Southwest 180 207 2,000 -780 Descending Washington Center
01:37PM 35.9333 -78.7292 225° Southwest 138 159 1,500 -660 Descending Washington Center
01:37PM 35.9214 -78.7456 228° Southwest 151 174 1,300 -720 Descending Washington Center
01:38PM 35.9075 -78.7619 224° Southwest 132 152 800 -600 Descending Washington Center
01:38PM 35.8933 -78.7817 228° Southwest 142 163 700 -240 Descending Washington Center
01:40PM 35.8776 -78.7875 225° Southwest  Level Estimated
01:47PM 35.8776 -78.7875 225° Southwest  Level Estimated